createdAt,value
2019-02-09T00:02:14.647Z,86.12
2019-02-09T00:05:15.173Z,85.30
2019-02-09T00:07:43.710Z,85.88
2019-02-09T00:10:14.146Z,85.53
2019-02-09T00:13:05.282Z,84.98
2019-02-09T00:15:35.874Z,84.52
2019-02-09T00:18:12.990Z,83.50
2019-02-09T00:21:14.042Z,83.63
2019-02-09T00:23:56.978Z,83.18
2019-02-09T00:26:27.278Z,82.12
2019-02-09T00:29:05.965Z,81.11
2019-02-09T00:32:05.550Z,81.20
2019-02-09T00:34:36.110Z,81.57
2019-02-09T00:37:04.619Z,81.79
2019-02-09T00:39:40.812Z,82.24
2019-02-09T00:42:13.908Z,82.12
2019-02-09T00:45:01.793Z,82.06
2019-02-09T00:47:30.314Z,82.01
2019-02-09T00:50:03.533Z,82.29
2019-02-09T00:52:32.929Z,82.81
2019-02-09T00:55:03.423Z,82.45
2019-02-09T00:57:31.950Z,82.40
2019-02-09T01:00:20.263Z,82.40
2019-02-09T01:03:13.001Z,81.40
2019-02-09T01:06:05.959Z,79.95
2019-02-09T01:08:48.640Z,79.62
2019-02-09T01:11:17.563Z,78.45
2019-02-09T01:14:05.524Z,77.88
2019-02-09T01:16:37.038Z,75.83
2019-02-09T01:19:13.135Z,74.79
2019-02-09T01:22:00.991Z,74.05
2019-02-09T01:24:30.045Z,73.40
2019-02-09T01:26:58.578Z,73.46
2019-02-09T01:29:27.087Z,73.79
2019-02-09T01:32:03.294Z,73.93
2019-02-09T01:34:31.823Z,74.79
2019-02-09T01:37:00.713Z,75.89
2019-02-09T01:39:29.255Z,76.58
2019-02-09T01:42:10.298Z,77.14
2019-02-09T01:44:47.163Z,77.61
2019-02-09T01:47:15.731Z,80.37
2019-02-09T01:49:58.584Z,81.35
2019-02-09T01:52:40.149Z,81.72
2019-02-09T01:55:33.094Z,79.64
2019-02-09T01:58:36.711Z,79.47
2019-02-09T02:01:18.868Z,80.53
2019-02-09T02:03:47.798Z,81.39
2019-02-09T02:06:19.767Z,81.89
2019-02-09T02:08:49.183Z,82.06
2019-02-09T02:11:17.713Z,81.36
2019-02-09T02:14:00.429Z,81.40
2019-02-09T02:16:39.447Z,81.98
2019-02-09T02:19:08.183Z,82.92
2019-02-09T02:21:58.991Z,82.96
2019-02-09T02:24:35.286Z,82.25
2019-02-09T02:27:03.798Z,82.01
2019-02-09T02:29:49.896Z,83.50
2019-02-09T02:32:18.456Z,83.47
2019-02-09T02:34:54.401Z,82.17
2019-02-09T02:37:22.954Z,81.93
2019-02-09T02:39:59.830Z,81.43
2019-02-09T02:42:37.030Z,81.55
2019-02-09T02:45:05.584Z,79.97
2019-02-09T02:47:38.131Z,79.06
2019-02-09T02:50:08.427Z,76.69
2019-02-09T02:52:36.955Z,76.29
2019-02-09T02:55:06.837Z,77.29
2019-02-09T02:57:37.335Z,78.34
2019-02-09T03:00:07.571Z,77.38
2019-02-09T03:02:40.071Z,76.69
2019-02-09T03:05:08.601Z,77.40
2019-02-09T03:07:49.909Z,77.16
2019-02-09T03:16:45.162Z,72.20
2019-02-09T03:19:16.123Z,72.59
2019-02-09T03:21:50.427Z,72.75
2019-02-09T03:26:56.688Z,72.43
2019-02-09T03:29:25.724Z,70.72
2019-02-09T03:31:54.776Z,70.32
2019-02-09T03:34:30.142Z,70.41
2019-02-09T03:39:42.385Z,69.75
2019-02-09T03:44:47.142Z,67.65
2019-02-09T03:47:24.986Z,67.86
2019-02-09T03:49:54.117Z,69.44
2019-02-09T03:52:26.089Z,70.02
2019-02-09T03:54:55.572Z,69.04
2019-02-09T03:57:25.840Z,68.88
2019-02-09T03:59:54.858Z,68.78
2019-02-09T04:02:23.902Z,68.72
2019-02-09T04:04:57.679Z,68.85
2019-02-09T04:07:35.635Z,68.12
2019-02-09T04:10:08.538Z,68.01
2019-02-09T04:12:40.529Z,68.11
2019-02-09T04:15:09.579Z,67.29
2019-02-09T04:17:40.531Z,66.59
2019-02-09T04:20:18.882Z,65.50
2019-02-09T04:22:47.940Z,65.33
2019-02-09T04:27:59.879Z,63.04
2019-02-09T04:30:40.118Z,63.47
2019-02-09T04:33:09.649Z,62.81
2019-02-09T04:35:40.629Z,61.69
2019-02-09T04:38:11.578Z,60.99
2019-02-09T04:40:40.692Z,61.73
2019-02-09T04:45:45.892Z,62.49
2019-02-09T04:48:47.572Z,62.14
2019-02-09T04:53:53.020Z,62.76
2019-02-09T04:56:24.052Z,62.19
2019-02-09T04:58:53.518Z,61.87
2019-02-09T05:03:58.247Z,62.28
2019-02-09T05:09:24.946Z,65.07
2019-02-09T05:11:54.388Z,65.03
2019-02-09T05:14:31.701Z,65.17
2019-02-09T05:17:28.142Z,64.24
2019-02-09T05:19:57.180Z,66.00
2019-02-09T05:22:40.256Z,65.97
2019-02-09T05:25:22.679Z,64.54
2019-02-09T05:27:51.787Z,63.06
2019-02-09T05:30:21.631Z,62.33
2019-02-09T05:38:06.421Z,62.41
2019-02-09T05:40:37.419Z,62.70
2019-02-09T05:43:14.956Z,63.20
2019-02-09T05:45:44.003Z,61.36
2019-02-09T05:48:17.739Z,63.68
2019-02-09T05:50:47.194Z,63.56
2019-02-09T05:53:29.909Z,58.92
2019-02-09T05:56:21.000Z,56.74
2019-02-09T05:58:50.742Z,55.93
2019-02-09T06:03:55.306Z,54.77
2019-02-09T06:09:34.089Z,54.22
2019-02-09T06:12:04.055Z,53.59
2019-02-09T06:14:51.892Z,53.63
2019-02-09T06:17:24.610Z,54.02
2019-02-09T06:19:53.749Z,55.34
2019-02-09T06:24:58.531Z,55.12
2019-02-09T06:27:28.053Z,56.89
2019-02-09T06:29:57.318Z,57.13
2019-02-09T06:32:26.372Z,58.98
2019-02-09T06:34:55.559Z,62.66
2019-02-09T06:37:40.595Z,65.31
2019-02-09T06:40:40.686Z,68.45
2019-02-09T06:45:45.405Z,73.77
2019-02-09T06:48:36.244Z,76.62
2019-02-09T06:53:43.015Z,79.78
2019-02-09T06:58:47.754Z,79.05
2019-02-09T07:03:52.474Z,78.00
2019-02-09T07:06:39.868Z,79.37
2019-02-09T07:09:10.437Z,79.93
2019-02-09T07:14:15.681Z,82.70
2019-02-09T07:16:55.660Z,82.04
2019-02-09T07:19:26.134Z,83.48
2019-02-09T07:24:29.506Z,83.65
2019-02-09T07:26:58.539Z,83.09
2019-02-09T07:29:28.136Z,83.26
2019-02-09T07:32:10.934Z,81.48
2019-02-09T07:34:39.975Z,81.31
2019-02-09T07:37:21.177Z,80.72
2019-02-09T07:39:54.056Z,80.77
2019-02-09T07:42:23.616Z,80.55
2019-02-09T07:44:55.174Z,81.33
2019-02-09T07:47:24.214Z,81.66
2019-02-09T07:49:54.251Z,80.81
2019-02-09T07:52:23.294Z,80.11
2019-02-09T07:55:07.433Z,80.50
2019-02-09T07:57:36.523Z,80.65
2019-02-09T08:00:33.205Z,81.91
2019-02-09T08:03:02.239Z,82.13
2019-02-09T08:05:32.308Z,81.74
2019-02-09T08:10:39.046Z,80.96
2019-02-09T08:13:08.071Z,80.55
2019-02-09T08:15:37.131Z,79.69
2019-02-09T08:18:06.152Z,78.83
2019-02-09T08:20:35.657Z,77.89
2019-02-09T08:23:21.328Z,76.91
2019-02-09T08:25:50.451Z,75.70
2019-02-09T08:28:20.678Z,75.35
2019-02-09T08:33:26.419Z,76.08
2019-02-09T08:36:12.363Z,76.06
2019-02-09T08:38:42.399Z,77.72
2019-02-09T08:43:47.190Z,77.20
2019-02-09T08:46:18.267Z,76.93
2019-02-09T08:48:47.319Z,76.48
2019-02-09T08:51:18.376Z,76.12
2019-02-09T08:53:48.008Z,76.00
2019-02-09T08:56:17.055Z,76.14
2019-02-09T08:58:47.001Z,76.53
2019-02-09T09:01:20.163Z,76.23
2019-02-09T09:03:49.232Z,75.97
2019-02-09T09:06:25.191Z,75.96
2019-02-09T09:08:54.390Z,76.32
2019-02-09T09:11:23.436Z,74.66
2019-02-09T09:13:54.575Z,70.17
2019-02-09T09:16:23.623Z,66.75
2019-02-09T09:18:57.361Z,64.32
2019-02-09T09:21:26.411Z,62.93
2019-02-09T09:23:57.429Z,60.76
2019-02-09T09:29:23.722Z,60.31
2019-02-09T09:32:04.713Z,64.46
2019-02-09T09:34:48.380Z,67.58
2019-02-09T09:37:29.975Z,69.43
2019-02-09T09:40:11.128Z,70.92
2019-02-09T09:42:54.045Z,65.26
2019-02-09T09:45:40.623Z,65.15
2019-02-09T09:50:57.169Z,58.74
2019-02-09T09:56:25.512Z,59.09
2019-02-09T09:59:05.938Z,59.60
2019-02-09T10:04:35.712Z,59.45
2019-02-09T10:07:16.723Z,59.25
2019-02-09T10:09:46.406Z,58.10
2019-02-09T10:12:15.862Z,58.50
2019-02-09T10:14:44.925Z,55.83
2019-02-09T10:17:14.169Z,55.41
2019-02-09T10:19:46.507Z,56.86
2019-02-09T10:22:15.570Z,55.36
2019-02-09T10:24:45.159Z,56.13
2019-02-09T10:27:14.263Z,54.70
2019-02-09T10:32:26.053Z,54.25
2019-02-09T10:37:31.372Z,55.07
2019-02-09T10:40:01.408Z,54.24
2019-02-09T10:42:32.436Z,52.10
2019-02-09T10:47:37.211Z,53.82
2019-02-09T10:50:16.443Z,53.08
2019-02-09T10:52:54.615Z,53.07
2019-02-09T10:55:26.306Z,53.27
2019-02-09T10:57:56.539Z,54.42
2019-02-09T11:00:29.571Z,53.70
2019-02-09T11:02:58.733Z,52.81
2019-02-09T11:05:33.223Z,53.59
2019-02-09T11:08:04.316Z,53.08
2019-02-09T11:10:43.099Z,53.53
2019-02-09T11:13:12.310Z,55.51
2019-02-09T11:15:43.247Z,56.07
2019-02-09T11:18:12.303Z,57.67
2019-02-09T11:21:02.274Z,58.47
2019-02-09T11:23:31.789Z,57.78
2019-02-09T11:26:04.091Z,58.38
2019-02-09T11:28:37.804Z,57.87
2019-02-09T11:33:42.593Z,60.01
2019-02-09T11:36:12.154Z,59.33
2019-02-09T11:38:46.504Z,59.59
2019-02-09T11:41:15.674Z,58.73
2019-02-09T11:43:44.820Z,56.20
2019-02-09T11:46:13.887Z,54.51
2019-02-09T11:48:43.502Z,54.43
2019-02-09T11:51:12.650Z,53.62
2019-02-09T11:53:42.735Z,55.19
2019-02-09T11:56:12.336Z,55.82
2019-02-09T11:58:41.452Z,53.26
2019-02-09T12:01:10.506Z,55.63
2019-02-09T12:03:39.563Z,57.46
2019-02-09T12:06:08.764Z,56.42
2019-02-09T12:08:39.243Z,56.48
2019-02-09T12:11:08.290Z,54.04
2019-02-09T12:13:37.466Z,52.99
2019-02-09T12:16:07.465Z,53.64
2019-02-09T12:18:36.510Z,54.54
2019-02-09T12:21:14.753Z,54.39
2019-02-09T12:23:44.081Z,52.36
2019-02-09T12:26:13.167Z,51.85
2019-02-09T12:28:50.005Z,53.76
2019-02-09T12:31:19.075Z,56.36
2019-02-09T12:33:48.126Z,54.11
2019-02-09T12:38:53.754Z,56.30
2019-02-09T12:44:00.449Z,56.21
2019-02-09T12:46:33.648Z,56.98
2019-02-09T12:49:02.682Z,56.68
2019-02-09T12:51:31.716Z,55.90
2019-02-09T12:54:01.330Z,56.83
2019-02-09T12:56:30.411Z,56.67
2019-02-09T12:58:59.456Z,55.71
2019-02-09T13:01:32.123Z,56.95
2019-02-09T13:04:01.184Z,56.56
2019-02-09T13:09:09.191Z,59.74
2019-02-09T13:11:40.172Z,57.00
2019-02-09T13:14:09.873Z,56.39
2019-02-09T13:19:14.672Z,60.19
2019-02-09T13:21:43.731Z,61.24
2019-02-09T13:24:12.763Z,61.78
2019-02-09T13:26:47.101Z,63.70
2019-02-09T13:29:16.167Z,63.64
2019-02-09T13:31:56.290Z,64.18
2019-02-09T13:34:29.200Z,62.53
2019-02-09T13:36:58.272Z,64.08
2019-02-09T13:39:29.008Z,63.98
2019-02-09T13:41:59.031Z,63.57
2019-02-09T13:44:28.128Z,63.57
2019-02-09T13:47:08.959Z,63.32
2019-02-09T13:52:16.037Z,64.14
2019-02-09T13:54:56.058Z,64.33
2019-02-09T13:57:25.220Z,63.99
2019-02-09T13:59:54.874Z,63.49
2019-02-09T14:02:29.480Z,64.19
2019-02-09T14:05:01.768Z,64.21
2019-02-09T14:07:48.121Z,64.35
2019-02-09T14:10:27.453Z,64.22
2019-02-09T14:15:35.954Z,64.84
2019-02-09T14:18:07.045Z,65.08
2019-02-09T14:20:36.091Z,64.36
2019-02-09T14:23:05.127Z,64.22
2019-02-09T14:25:35.966Z,64.98
2019-02-09T14:28:05.050Z,64.03
2019-02-09T14:30:38.348Z,64.72
2019-02-09T14:33:15.351Z,65.29
2019-02-09T14:35:45.378Z,64.85
2019-02-09T14:38:14.905Z,63.91
2019-02-09T14:40:45.874Z,63.49
2019-02-09T14:43:14.973Z,64.81
2019-02-09T14:45:44.646Z,64.82
2019-02-09T14:48:13.793Z,63.60
2019-02-09T14:50:42.867Z,65.03
2019-02-09T14:53:15.111Z,64.26
2019-02-09T14:58:30.404Z,64.63
2019-02-09T15:01:04.059Z,65.08
2019-02-09T15:03:38.757Z,64.58
2019-02-09T15:06:11.826Z,65.48
2019-02-09T15:08:44.803Z,65.14
2019-02-09T15:11:14.363Z,64.69
2019-02-09T15:16:21.636Z,66.71
2019-02-09T15:18:50.765Z,66.67
2019-02-09T15:21:19.791Z,66.49
2019-02-09T15:23:51.437Z,67.23
2019-02-09T15:26:20.507Z,67.57
2019-02-09T15:28:49.575Z,66.94
2019-02-09T15:31:19.465Z,68.23
2019-02-09T15:33:54.055Z,68.72
2019-02-09T15:36:24.301Z,68.54
2019-02-09T15:38:53.383Z,67.79
2019-02-09T15:41:28.275Z,68.05
2019-02-09T15:44:20.532Z,68.79
2019-02-09T15:46:50.146Z,69.14
2019-02-09T15:49:19.179Z,69.09
2019-02-09T15:54:23.909Z,68.85
2019-02-09T15:57:01.756Z,69.05
2019-02-09T15:59:30.802Z,69.34
2019-02-09T16:02:08.903Z,69.14
2019-02-09T16:04:38.881Z,69.84
2019-02-09T16:07:11.601Z,68.85
2019-02-09T16:09:41.311Z,69.43
2019-02-09T16:12:16.819Z,69.30
2019-02-09T16:15:05.754Z,69.26
2019-02-09T16:17:36.074Z,70.22
2019-02-09T16:20:21.487Z,70.76
2019-02-09T16:22:57.547Z,71.68
2019-02-09T16:25:26.751Z,72.30
2019-02-09T16:30:31.541Z,72.69
2019-02-09T16:33:01.588Z,73.21
2019-02-09T16:35:31.103Z,73.15
2019-02-09T16:38:04.800Z,74.23
2019-02-09T16:40:34.006Z,74.55
2019-02-09T16:45:38.746Z,74.51
2019-02-09T16:48:12.239Z,74.83
2019-02-09T16:50:41.298Z,75.48
2019-02-09T16:53:10.333Z,75.57
2019-02-09T16:55:39.912Z,75.99
2019-02-09T16:58:08.976Z,76.46
2019-02-09T17:00:44.279Z,77.35
2019-02-09T17:03:14.286Z,77.29
2019-02-09T17:05:43.325Z,78.40
2019-02-09T17:08:13.153Z,78.33
2019-02-09T17:10:42.217Z,77.92
2019-02-09T17:13:21.859Z,78.30
2019-02-09T17:18:33.479Z,79.31
2019-02-09T17:23:44.591Z,79.37
2019-02-09T17:26:15.085Z,79.66
2019-02-09T17:28:42.665Z,79.55
2019-02-09T17:32:55.726Z,79.62
2019-02-09T17:35:24.778Z,79.47
2019-02-09T17:37:53.819Z,80.46
2019-02-09T17:40:42.488Z,80.17
2019-02-09T17:43:14.836Z,80.50
2019-02-09T17:45:55.129Z,80.74
2019-02-09T17:48:45.539Z,81.83
2019-02-09T17:53:53.035Z,80.86
2019-02-09T17:56:22.244Z,80.16
2019-02-09T17:58:54.633Z,80.04
2019-02-09T18:01:23.597Z,79.61
2019-02-09T18:04:00.288Z,78.95
2019-02-09T18:06:31.255Z,79.35
2019-02-09T18:09:07.799Z,78.64
2019-02-09T18:11:36.859Z,78.70
2019-02-09T18:14:06.810Z,78.64
2019-02-09T18:16:44.159Z,78.94
2019-02-09T18:19:15.590Z,79.14
2019-02-09T18:21:46.627Z,79.16
2019-02-09T18:24:15.670Z,78.85
2019-02-09T18:26:49.413Z,79.37
2019-02-09T18:29:18.455Z,79.68
2019-02-09T18:31:51.742Z,79.88
2019-02-09T18:34:20.830Z,79.90
2019-02-09T18:37:07.486Z,80.13
2019-02-09T18:40:08.113Z,79.87
2019-02-09T18:45:16.102Z,78.98
2019-02-09T18:47:54.298Z,78.53
2019-02-09T18:50:24.228Z,78.87
2019-02-09T18:53:04.651Z,78.43
2019-02-09T18:55:42.961Z,78.29
2019-02-09T18:58:13.049Z,77.97
2019-02-09T19:00:45.490Z,77.47
2019-02-09T19:03:14.537Z,77.12
2019-02-09T19:05:59.095Z,77.36
2019-02-09T19:08:38.278Z,77.27
2019-02-09T19:11:07.690Z,76.67
2019-02-09T19:13:36.812Z,76.92
2019-02-09T19:16:06.793Z,75.95
2019-02-09T19:19:08.066Z,76.32
2019-02-09T19:21:37.110Z,76.34
2019-02-09T19:24:07.244Z,76.48
2019-02-09T19:26:38.315Z,76.71
2019-02-09T19:29:07.561Z,76.36
2019-02-09T19:31:43.010Z,75.74
2019-02-09T19:34:12.886Z,76.00
2019-02-09T19:36:54.517Z,75.43
2019-02-09T19:39:23.554Z,75.11
2019-02-09T19:42:06.901Z,74.82
2019-02-09T19:47:12.263Z,74.72
2019-02-09T19:49:59.391Z,73.95
2019-02-09T19:52:42.092Z,74.06
2019-02-09T19:55:14.761Z,74.46
2019-02-09T20:00:29.075Z,74.26
2019-02-09T20:03:07.267Z,74.43
2019-02-09T20:05:36.303Z,73.97
2019-02-09T20:13:18.621Z,73.03
2019-02-09T20:18:23.603Z,72.39
2019-02-09T20:20:56.679Z,72.33
2019-02-09T20:23:27.122Z,72.49
2019-02-09T20:31:09.555Z,73.26
2019-02-09T20:33:46.718Z,72.15
2019-02-09T20:36:17.711Z,71.40
2019-02-09T20:39:07.925Z,71.36
2019-02-09T20:41:44.415Z,71.36
2019-02-09T20:44:13.465Z,70.98
2019-02-09T20:49:18.548Z,70.34
2019-02-09T20:51:49.539Z,70.07
2019-02-09T20:54:18.724Z,70.38
2019-02-09T20:56:50.988Z,70.55
2019-02-09T20:59:20.133Z,70.28
2019-02-09T21:04:24.880Z,68.67
2019-02-09T21:12:07.774Z,70.27
2019-02-09T21:14:36.892Z,70.80
2019-02-09T21:17:05.912Z,71.21
2019-02-09T21:19:35.852Z,70.70
2019-02-09T21:24:40.636Z,70.82
2019-02-09T21:27:09.751Z,71.13
2019-02-09T21:29:38.849Z,71.39
2019-02-09T21:32:21.250Z,71.00
2019-02-09T21:34:50.700Z,72.06
2019-02-09T21:37:19.795Z,71.62
2019-02-09T21:39:48.835Z,72.06
2019-02-09T21:42:33.510Z,72.60
2019-02-09T21:45:02.727Z,72.40
2019-02-09T21:47:32.105Z,72.61
2019-02-09T21:52:38.912Z,70.99
2019-02-09T21:55:19.646Z,70.49
2019-02-09T21:57:48.795Z,70.29
2019-02-09T22:02:55.605Z,70.41
2019-02-09T22:05:28.241Z,70.45
2019-02-09T22:07:58.327Z,70.64
2019-02-09T22:10:32.076Z,70.92
2019-02-09T22:13:11.858Z,70.99
2019-02-09T22:15:41.028Z,71.36
2019-02-09T22:18:23.638Z,71.49
2019-02-09T22:21:01.264Z,71.79
2019-02-09T22:23:30.512Z,71.64
2019-02-09T22:26:01.579Z,71.75
2019-02-09T22:28:30.582Z,71.80
2019-02-09T22:31:02.677Z,71.88
2019-02-09T22:33:32.553Z,71.87
2019-02-09T22:36:02.593Z,71.97
2019-02-09T22:38:38.883Z,72.51
2019-02-09T22:41:07.890Z,72.94
2019-02-09T22:43:59.033Z,72.95
2019-02-09T22:49:06.981Z,72.75
2019-02-09T22:54:17.614Z,73.11
2019-02-09T22:59:23.164Z,74.22
2019-02-09T23:02:03.060Z,74.59
2019-02-09T23:04:41.106Z,75.53
2019-02-09T23:07:10.147Z,77.05
2019-02-09T23:09:41.140Z,77.99
2019-02-09T23:12:13.764Z,78.37
2019-02-09T23:14:46.782Z,78.77
2019-02-09T23:17:15.823Z,80.00
2019-02-09T23:19:50.881Z,80.52
2019-02-09T23:22:19.927Z,81.22
2019-02-09T23:25:04.311Z,82.68
2019-02-09T23:27:33.425Z,83.15
2019-02-09T23:33:01.697Z,82.70
2019-02-09T23:35:30.866Z,82.18
2019-02-09T23:38:01.012Z,82.09
2019-02-09T23:40:31.033Z,82.56
2019-02-09T23:43:02.267Z,81.47
2019-02-09T23:48:15.216Z,81.75
2019-02-09T23:50:44.382Z,82.75
2019-02-09T23:53:13.421Z,82.71
2019-02-09T23:55:43.370Z,83.81
2019-02-09T23:58:12.874Z,83.61
